sensor_id;sensor_type;location;lat;lon;timestamp;P1;durP1;ratioP1;P2;durP2;ratioP2
29196;SDS011;62796;42.654;23.316;2023-05-07T00:01:42;21.10;;;12.02;;
29196;SDS011;62796;42.654;23.316;2023-05-07T00:04:07;17.65;;;12.00;;
29196;SDS011;62796;42.654;23.316;2023-05-07T00:06:33;21.55;;;12.52;;
29196;SDS011;62796;42.654;23.316;2023-05-07T00:08:58;21.73;;;12.68;;
29196;SDS011;62796;42.654;23.316;2023-05-07T00:11:24;24.73;;;14.35;;
29196;SDS011;62796;42.654;23.316;2023-05-07T00:13:51;19.35;;;14.00;;
29196;SDS011;62796;42.654;23.316;2023-05-07T00:16:16;22.38;;;13.93;;
29196;SDS011;62796;42.654;23.316;2023-05-07T00:18:42;24.50;;;14.13;;
29196;SDS011;62796;42.654;23.316;2023-05-07T00:21:07;21.55;;;12.88;;
29196;SDS011;62796;42.654;23.316;2023-05-07T00:23:33;21.88;;;14.00;;
29196;SDS011;62796;42.654;23.316;2023-05-07T00:25:58;24.13;;;14.18;;
29196;SDS011;62796;42.654;23.316;2023-05-07T00:28:24;22.60;;;13.90;;
29196;SDS011;62796;42.654;23.316;2023-05-07T00:30:49;22.95;;;14.88;;
29196;SDS011;62796;42.654;23.316;2023-05-07T00:33:15;21.38;;;13.95;;
29196;SDS011;62796;42.654;23.316;2023-05-07T00:35:41;17.48;;;13.38;;
29196;SDS011;62796;42.654;23.316;2023-05-07T00:38:07;23.48;;;14.00;;
29196;SDS011;62796;42.654;23.316;2023-05-07T00:40:33;20.17;;;13.40;;
29196;SDS011;62796;42.654;23.316;2023-05-07T00:42:58;22.35;;;14.27;;
29196;SDS011;62796;42.654;23.316;2023-05-07T00:45:28;19.85;;;13.88;;
29196;SDS011;62796;42.654;23.316;2023-05-07T00:47:57;19.67;;;14.05;;
29196;SDS011;62796;42.654;23.316;2023-05-07T00:50:25;18.90;;;13.55;;
29196;SDS011;62796;42.654;23.316;2023-05-07T00:52:51;20.45;;;13.55;;
29196;SDS011;62796;42.654;23.316;2023-05-07T00:55:17;18.20;;;13.18;;
29196;SDS011;62796;42.654;23.316;2023-05-07T00:57:43;20.23;;;14.35;;
29196;SDS011;62796;42.654;23.316;2023-05-07T01:00:09;22.80;;;14.02;;
29196;SDS011;62796;42.654;23.316;2023-05-07T01:02:37;21.00;;;13.35;;
29196;SDS011;62796;42.654;23.316;2023-05-07T01:05:04;19.17;;;13.75;;
29196;SDS011;62796;42.654;23.316;2023-05-07T01:07:32;18.13;;;13.55;;
29196;SDS011;62796;42.654;23.316;2023-05-07T01:09:59;20.38;;;14.23;;
29196;SDS011;62796;42.654;23.316;2023-05-07T01:12:26;17.77;;;12.75;;
29196;SDS011;62796;42.654;23.316;2023-05-07T01:14:53;20.65;;;12.80;;
29196;SDS011;62796;42.654;23.316;2023-05-07T01:17:18;14.70;;;11.73;;
29196;SDS011;62796;42.654;23.316;2023-05-07T01:19:44;15.00;;;10.30;;
29196;SDS011;62796;42.654;23.316;2023-05-07T01:22:10;17.58;;;10.82;;
29196;SDS011;62796;42.654;23.316;2023-05-07T01:24:37;17.33;;;11.45;;
29196;SDS011;62796;42.654;23.316;2023-05-07T01:27:03;13.95;;;10.85;;
29196;SDS011;62796;42.654;23.316;2023-05-07T01:29:28;15.48;;;10.32;;
29196;SDS011;62796;42.654;23.316;2023-05-07T01:31:55;17.50;;;12.15;;
29196;SDS011;62796;42.654;23.316;2023-05-07T01:34:24;16.83;;;11.55;;
29196;SDS011;62796;42.654;23.316;2023-05-07T01:36:52;18.77;;;11.63;;
29196;SDS011;62796;42.654;23.316;2023-05-07T01:39:21;14.80;;;11.02;;
29196;SDS011;62796;42.654;23.316;2023-05-07T01:41:48;13.63;;;10.40;;
29196;SDS011;62796;42.654;23.316;2023-05-07T01:44:14;14.05;;;9.68;;
29196;SDS011;62796;42.654;23.316;2023-05-07T01:46:41;11.88;;;8.15;;
29196;SDS011;62796;42.654;23.316;2023-05-07T01:49:07;14.75;;;8.48;;
29196;SDS011;62796;42.654;23.316;2023-05-07T01:51:33;11.25;;;8.13;;
29196;SDS011;62796;42.654;23.316;2023-05-07T01:53:59;12.70;;;8.93;;
29196;SDS011;62796;42.654;23.316;2023-05-07T01:56:25;13.60;;;8.75;;
29196;SDS011;62796;42.654;23.316;2023-05-07T01:58:50;11.95;;;8.80;;
29196;SDS011;62796;42.654;23.316;2023-05-07T02:01:16;13.40;;;8.52;;
29196;SDS011;62796;42.654;23.316;2023-05-07T02:03:43;12.65;;;8.07;;
29196;SDS011;62796;42.654;23.316;2023-05-07T02:06:09;13.20;;;9.25;;
29196;SDS011;62796;42.654;23.316;2023-05-07T02:08:34;10.77;;;8.95;;
29196;SDS011;62796;42.654;23.316;2023-05-07T02:11:00;11.52;;;9.30;;
29196;SDS011;62796;42.654;23.316;2023-05-07T02:13:29;14.38;;;9.93;;
29196;SDS011;62796;42.654;23.316;2023-05-07T02:15:57;14.88;;;9.27;;
29196;SDS011;62796;42.654;23.316;2023-05-07T02:18:22;16.58;;;10.45;;
29196;SDS011;62796;42.654;23.316;2023-05-07T02:20:48;15.63;;;10.07;;
29196;SDS011;62796;42.654;23.316;2023-05-07T02:23:13;28.70;;;15.45;;
29196;SDS011;62796;42.654;23.316;2023-05-07T02:25:38;24.70;;;13.60;;
29196;SDS011;62796;42.654;23.316;2023-05-07T02:28:04;15.38;;;10.95;;
29196;SDS011;62796;42.654;23.316;2023-05-07T02:30:29;16.27;;;9.90;;
29196;SDS011;62796;42.654;23.316;2023-05-07T02:32:55;14.00;;;10.23;;
29196;SDS011;62796;42.654;23.316;2023-05-07T02:35:20;17.77;;;13.32;;
29196;SDS011;62796;42.654;23.316;2023-05-07T02:37:46;18.85;;;13.63;;
29196;SDS011;62796;42.654;23.316;2023-05-07T02:40:11;14.60;;;11.25;;
29196;SDS011;62796;42.654;23.316;2023-05-07T02:42:37;18.02;;;11.20;;
29196;SDS011;62796;42.654;23.316;2023-05-07T02:45:02;17.40;;;11.35;;
29196;SDS011;62796;42.654;23.316;2023-05-07T02:47:28;16.45;;;11.13;;
29196;SDS011;62796;42.654;23.316;2023-05-07T02:49:54;16.80;;;11.07;;
29196;SDS011;62796;42.654;23.316;2023-05-07T02:52:20;18.70;;;11.05;;
29196;SDS011;62796;42.654;23.316;2023-05-07T02:54:46;16.35;;;11.32;;
29196;SDS011;62796;42.654;23.316;2023-05-07T02:57:11;14.45;;;11.30;;
29196;SDS011;62796;42.654;23.316;2023-05-07T02:59:36;16.65;;;11.43;;
29196;SDS011;62796;42.654;23.316;2023-05-07T03:02:02;19.02;;;11.00;;
29196;SDS011;62796;42.654;23.316;2023-05-07T03:04:27;16.42;;;10.75;;
29196;SDS011;62796;42.654;23.316;2023-05-07T03:06:53;15.85;;;10.52;;
29196;SDS011;62796;42.654;23.316;2023-05-07T03:09:18;16.75;;;10.60;;
29196;SDS011;62796;42.654;23.316;2023-05-07T03:11:44;17.20;;;10.68;;
29196;SDS011;62796;42.654;23.316;2023-05-07T03:14:09;14.75;;;11.10;;
29196;SDS011;62796;42.654;23.316;2023-05-07T03:16:35;17.98;;;10.80;;
29196;SDS011;62796;42.654;23.316;2023-05-07T03:19:01;16.10;;;11.32;;
29196;SDS011;62796;42.654;23.316;2023-05-07T03:21:26;16.77;;;11.00;;
29196;SDS011;62796;42.654;23.316;2023-05-07T03:23:52;22.02;;;11.05;;
29196;SDS011;62796;42.654;23.316;2023-05-07T03:26:18;17.88;;;10.63;;
29196;SDS011;62796;42.654;23.316;2023-05-07T03:28:43;16.33;;;11.10;;
29196;SDS011;62796;42.654;23.316;2023-05-07T03:31:09;15.63;;;10.48;;
29196;SDS011;62796;42.654;23.316;2023-05-07T03:33:34;16.50;;;10.73;;
29196;SDS011;62796;42.654;23.316;2023-05-07T03:36:00;19.58;;;10.50;;
29196;SDS011;62796;42.654;23.316;2023-05-07T03:38:26;16.50;;;11.02;;
29196;SDS011;62796;42.654;23.316;2023-05-07T03:40:51;17.23;;;11.57;;
29196;SDS011;62796;42.654;23.316;2023-05-07T03:43:17;15.02;;;11.20;;
29196;SDS011;62796;42.654;23.316;2023-05-07T03:45:42;19.92;;;11.48;;
29196;SDS011;62796;42.654;23.316;2023-05-07T03:48:08;15.85;;;10.70;;
29196;SDS011;62796;42.654;23.316;2023-05-07T03:50:33;16.45;;;11.50;;
29196;SDS011;62796;42.654;23.316;2023-05-07T03:52:59;19.10;;;11.05;;
29196;SDS011;62796;42.654;23.316;2023-05-07T03:55:24;17.85;;;10.98;;
29196;SDS011;62796;42.654;23.316;2023-05-07T03:57:50;18.95;;;11.40;;
29196;SDS011;62796;42.654;23.316;2023-05-07T04:00:15;15.55;;;11.10;;
29196;SDS011;62796;42.654;23.316;2023-05-07T04:02:41;23.08;;;11.95;;
29196;SDS011;62796;42.654;23.316;2023-05-07T04:05:07;17.85;;;11.40;;
29196;SDS011;62796;42.654;23.316;2023-05-07T04:07:32;18.08;;;12.23;;
29196;SDS011;62796;42.654;23.316;2023-05-07T04:09:58;21.00;;;11.93;;
29196;SDS011;62796;42.654;23.316;2023-05-07T04:12:23;15.95;;;11.13;;
29196;SDS011;62796;42.654;23.316;2023-05-07T04:14:49;19.23;;;12.00;;
29196;SDS011;62796;42.654;23.316;2023-05-07T04:17:14;17.88;;;11.45;;
29196;SDS011;62796;42.654;23.316;2023-05-07T04:19:40;14.68;;;10.85;;
29196;SDS011;62796;42.654;23.316;2023-05-07T04:22:10;16.58;;;11.45;;
29196;SDS011;62796;42.654;23.316;2023-05-07T04:24:35;17.08;;;12.10;;
29196;SDS011;62796;42.654;23.316;2023-05-07T04:27:01;22.58;;;12.90;;
29196;SDS011;62796;42.654;23.316;2023-05-07T04:29:26;15.90;;;11.55;;
29196;SDS011;62796;42.654;23.316;2023-05-07T04:31:52;17.77;;;11.35;;
29196;SDS011;62796;42.654;23.316;2023-05-07T04:34:17;17.55;;;12.23;;
29196;SDS011;62796;42.654;23.316;2023-05-07T04:36:43;16.88;;;12.18;;
29196;SDS011;62796;42.654;23.316;2023-05-07T04:39:08;15.43;;;11.38;;
29196;SDS011;62796;42.654;23.316;2023-05-07T04:41:35;16.08;;;12.23;;
29196;SDS011;62796;42.654;23.316;2023-05-07T04:44:01;18.30;;;12.60;;
29196;SDS011;62796;42.654;23.316;2023-05-07T04:46:29;19.17;;;12.48;;
29196;SDS011;62796;42.654;23.316;2023-05-07T04:48:54;17.10;;;12.38;;
29196;SDS011;62796;42.654;23.316;2023-05-07T04:51:20;17.58;;;11.95;;
29196;SDS011;62796;42.654;23.316;2023-05-07T04:53:45;16.33;;;12.38;;
29196;SDS011;62796;42.654;23.316;2023-05-07T04:56:11;16.13;;;12.23;;
29196;SDS011;62796;42.654;23.316;2023-05-07T04:58:36;19.95;;;12.32;;
29196;SDS011;62796;42.654;23.316;2023-05-07T05:01:02;17.48;;;12.38;;
29196;SDS011;62796;42.654;23.316;2023-05-07T05:03:27;15.40;;;12.20;;
29196;SDS011;62796;42.654;23.316;2023-05-07T05:05:53;16.50;;;11.88;;
29196;SDS011;62796;42.654;23.316;2023-05-07T05:08:18;16.60;;;12.05;;
29196;SDS011;62796;42.654;23.316;2023-05-07T05:10:44;16.65;;;11.95;;
29196;SDS011;62796;42.654;23.316;2023-05-07T05:13:09;17.08;;;11.35;;
29196;SDS011;62796;42.654;23.316;2023-05-07T05:15:37;15.60;;;10.90;;
29196;SDS011;62796;42.654;23.316;2023-05-07T05:18:03;13.90;;;10.80;;
29196;SDS011;62796;42.654;23.316;2023-05-07T05:20:28;17.17;;;11.40;;
29196;SDS011;62796;42.654;23.316;2023-05-07T05:22:54;16.38;;;12.05;;
29196;SDS011;62796;42.654;23.316;2023-05-07T05:25:20;19.52;;;12.02;;
29196;SDS011;62796;42.654;23.316;2023-05-07T05:27:45;14.27;;;11.70;;
29196;SDS011;62796;42.654;23.316;2023-05-07T05:30:11;17.08;;;12.65;;
29196;SDS011;62796;42.654;23.316;2023-05-07T05:32:37;13.40;;;10.75;;
29196;SDS011;62796;42.654;23.316;2023-05-07T05:35:03;13.68;;;11.35;;
29196;SDS011;62796;42.654;23.316;2023-05-07T05:37:29;15.73;;;11.45;;
29196;SDS011;62796;42.654;23.316;2023-05-07T05:39:56;16.95;;;11.90;;
29196;SDS011;62796;42.654;23.316;2023-05-07T05:42:21;16.73;;;11.23;;
29196;SDS011;62796;42.654;23.316;2023-05-07T05:44:47;15.65;;;11.68;;
29196;SDS011;62796;42.654;23.316;2023-05-07T05:47:13;15.30;;;11.73;;
29196;SDS011;62796;42.654;23.316;2023-05-07T05:49:38;14.55;;;10.57;;
29196;SDS011;62796;42.654;23.316;2023-05-07T05:52:04;13.25;;;11.00;;
29196;SDS011;62796;42.654;23.316;2023-05-07T05:54:29;16.30;;;10.98;;
29196;SDS011;62796;42.654;23.316;2023-05-07T05:56:55;11.88;;;9.82;;
29196;SDS011;62796;42.654;23.316;2023-05-07T05:59:20;17.55;;;10.65;;
29196;SDS011;62796;42.654;23.316;2023-05-07T06:01:46;12.38;;;9.88;;
29196;SDS011;62796;42.654;23.316;2023-05-07T06:04:11;15.13;;;9.73;;
29196;SDS011;62796;42.654;23.316;2023-05-07T06:06:37;14.40;;;9.98;;
29196;SDS011;62796;42.654;23.316;2023-05-07T06:09:02;14.50;;;10.68;;
29196;SDS011;62796;42.654;23.316;2023-05-07T06:11:28;14.27;;;9.95;;
29196;SDS011;62796;42.654;23.316;2023-05-07T06:13:53;16.25;;;10.05;;
29196;SDS011;62796;42.654;23.316;2023-05-07T06:16:19;16.33;;;10.07;;
29196;SDS011;62796;42.654;23.316;2023-05-07T06:18:46;18.13;;;11.00;;
29196;SDS011;62796;42.654;23.316;2023-05-07T06:21:13;14.75;;;9.05;;
29196;SDS011;62796;42.654;23.316;2023-05-07T06:23:39;13.63;;;9.88;;
29196;SDS011;62796;42.654;23.316;2023-05-07T06:26:06;11.60;;;9.00;;
29196;SDS011;62796;42.654;23.316;2023-05-07T06:28:31;14.13;;;9.00;;
29196;SDS011;62796;42.654;23.316;2023-05-07T06:33:45;15.55;;;9.55;;
29196;SDS011;62796;42.654;23.316;2023-05-07T06:36:11;14.68;;;8.95;;
29196;SDS011;62796;42.654;23.316;2023-05-07T06:38:36;14.80;;;9.13;;
29196;SDS011;62796;42.654;23.316;2023-05-07T06:41:02;15.85;;;9.20;;
29196;SDS011;62796;42.654;23.316;2023-05-07T06:43:27;10.40;;;8.20;;
29196;SDS011;62796;42.654;23.316;2023-05-07T06:45:52;9.82;;;8.20;;
29196;SDS011;62796;42.654;23.316;2023-05-07T06:48:18;13.73;;;9.45;;
29196;SDS011;62796;42.654;23.316;2023-05-07T06:50:43;10.98;;;8.85;;
29196;SDS011;62796;42.654;23.316;2023-05-07T06:53:09;11.52;;;7.93;;
29196;SDS011;62796;42.654;23.316;2023-05-07T06:55:34;11.85;;;8.13;;
29196;SDS011;62796;42.654;23.316;2023-05-07T06:58:00;9.50;;;8.18;;
29196;SDS011;62796;42.654;23.316;2023-05-07T07:00:29;11.52;;;8.27;;
29196;SDS011;62796;42.654;23.316;2023-05-07T07:02:55;13.55;;;7.93;;
29196;SDS011;62796;42.654;23.316;2023-05-07T07:05:21;12.15;;;8.38;;
29196;SDS011;62796;42.654;23.316;2023-05-07T07:07:47;10.05;;;8.25;;
29196;SDS011;62796;42.654;23.316;2023-05-07T07:10:23;12.00;;;9.20;;
29196;SDS011;62796;42.654;23.316;2023-05-07T07:12:49;13.55;;;8.95;;
29196;SDS011;62796;42.654;23.316;2023-05-07T07:15:15;12.80;;;8.57;;
29196;SDS011;62796;42.654;23.316;2023-05-07T07:17:41;14.73;;;9.13;;
29196;SDS011;62796;42.654;23.316;2023-05-07T07:20:06;12.43;;;8.68;;
29196;SDS011;62796;42.654;23.316;2023-05-07T07:22:33;15.43;;;8.93;;
29196;SDS011;62796;42.654;23.316;2023-05-07T07:24:58;14.98;;;8.60;;
29196;SDS011;62796;42.654;23.316;2023-05-07T07:27:24;14.88;;;8.45;;
29196;SDS011;62796;42.654;23.316;2023-05-07T07:29:49;15.15;;;8.63;;
29196;SDS011;62796;42.654;23.316;2023-05-07T07:32:15;13.43;;;9.02;;
29196;SDS011;62796;42.654;23.316;2023-05-07T07:34:40;10.95;;;9.13;;
29196;SDS011;62796;42.654;23.316;2023-05-07T07:37:06;11.95;;;9.23;;
29196;SDS011;62796;42.654;23.316;2023-05-07T07:39:32;15.68;;;9.07;;
29196;SDS011;62796;42.654;23.316;2023-05-07T07:41:57;13.77;;;10.75;;
29196;SDS011;62796;42.654;23.316;2023-05-07T07:44:23;11.82;;;8.75;;
29196;SDS011;62796;42.654;23.316;2023-05-07T07:46:48;14.10;;;9.10;;
29196;SDS011;62796;42.654;23.316;2023-05-07T07:49:14;16.33;;;11.60;;
29196;SDS011;62796;42.654;23.316;2023-05-07T07:51:40;13.40;;;9.85;;
29196;SDS011;62796;42.654;23.316;2023-05-07T07:54:05;14.45;;;10.00;;
29196;SDS011;62796;42.654;23.316;2023-05-07T07:56:32;14.45;;;8.15;;
29196;SDS011;62796;42.654;23.316;2023-05-07T07:59:01;12.40;;;8.07;;
29196;SDS011;62796;42.654;23.316;2023-05-07T08:01:26;13.60;;;9.07;;
29196;SDS011;62796;42.654;23.316;2023-05-07T08:03:54;9.80;;;7.90;;
29196;SDS011;62796;42.654;23.316;2023-05-07T08:06:20;11.32;;;9.00;;
29196;SDS011;62796;42.654;23.316;2023-05-07T08:08:45;13.18;;;8.50;;
29196;SDS011;62796;42.654;23.316;2023-05-07T08:11:10;15.23;;;8.95;;
29196;SDS011;62796;42.654;23.316;2023-05-07T08:13:36;14.50;;;8.15;;
29196;SDS011;62796;42.654;23.316;2023-05-07T08:16:03;13.65;;;8.38;;
29196;SDS011;62796;42.654;23.316;2023-05-07T08:18:29;13.00;;;8.75;;
29196;SDS011;62796;42.654;23.316;2023-05-07T08:20:54;15.43;;;8.63;;
29196;SDS011;62796;42.654;23.316;2023-05-07T08:23:20;13.07;;;8.20;;
29196;SDS011;62796;42.654;23.316;2023-05-07T08:25:46;9.80;;;7.40;;
29196;SDS011;62796;42.654;23.316;2023-05-07T08:28:12;11.25;;;7.60;;
29196;SDS011;62796;42.654;23.316;2023-05-07T08:30:37;14.55;;;7.18;;
29196;SDS011;62796;42.654;23.316;2023-05-07T08:33:02;11.35;;;6.28;;
29196;SDS011;62796;42.654;23.316;2023-05-07T08:35:28;10.75;;;6.93;;
29196;SDS011;62796;42.654;23.316;2023-05-07T08:37:53;8.43;;;5.97;;
29196;SDS011;62796;42.654;23.316;2023-05-07T08:40:20;10.35;;;6.70;;
29196;SDS011;62796;42.654;23.316;2023-05-07T08:42:48;9.77;;;6.53;;
29196;SDS011;62796;42.654;23.316;2023-05-07T08:45:16;7.60;;;6.75;;
29196;SDS011;62796;42.654;23.316;2023-05-07T08:47:44;10.20;;;7.07;;
29196;SDS011;62796;42.654;23.316;2023-05-07T08:50:15;12.35;;;7.68;;
29196;SDS011;62796;42.654;23.316;2023-05-07T08:52:41;7.07;;;5.10;;
29196;SDS011;62796;42.654;23.316;2023-05-07T08:55:07;10.23;;;5.95;;
29196;SDS011;62796;42.654;23.316;2023-05-07T08:57:33;10.60;;;6.80;;
29196;SDS011;62796;42.654;23.316;2023-05-07T08:59:59;9.25;;;7.45;;
29196;SDS011;62796;42.654;23.316;2023-05-07T09:02:25;13.07;;;7.07;;
29196;SDS011;62796;42.654;23.316;2023-05-07T09:04:50;8.55;;;6.47;;
29196;SDS011;62796;42.654;23.316;2023-05-07T09:07:16;10.85;;;7.10;;
29196;SDS011;62796;42.654;23.316;2023-05-07T09:09:42;9.10;;;6.50;;
29196;SDS011;62796;42.654;23.316;2023-05-07T09:12:09;7.55;;;6.45;;
29196;SDS011;62796;42.654;23.316;2023-05-07T09:14:34;11.27;;;6.30;;
29196;SDS011;62796;42.654;23.316;2023-05-07T09:17:00;7.78;;;6.53;;
29196;SDS011;62796;42.654;23.316;2023-05-07T09:19:26;11.60;;;7.72;;
29196;SDS011;62796;42.654;23.316;2023-05-07T09:22:02;9.00;;;6.78;;
29196;SDS011;62796;42.654;23.316;2023-05-07T09:24:28;10.32;;;6.40;;
29196;SDS011;62796;42.654;23.316;2023-05-07T09:26:58;7.78;;;5.80;;
29196;SDS011;62796;42.654;23.316;2023-05-07T09:29:25;8.15;;;6.50;;
29196;SDS011;62796;42.654;23.316;2023-05-07T09:31:50;12.07;;;6.53;;
29196;SDS011;62796;42.654;23.316;2023-05-07T09:34:16;9.27;;;6.10;;
29196;SDS011;62796;42.654;23.316;2023-05-07T09:36:41;11.32;;;7.05;;
29196;SDS011;62796;42.654;23.316;2023-05-07T09:39:07;11.88;;;6.70;;
29196;SDS011;62796;42.654;23.316;2023-05-07T09:41:32;6.97;;;6.07;;
29196;SDS011;62796;42.654;23.316;2023-05-07T09:44:07;8.02;;;5.88;;
29196;SDS011;62796;42.654;23.316;2023-05-07T09:46:34;6.63;;;4.53;;
29196;SDS011;62796;42.654;23.316;2023-05-07T09:49:02;7.32;;;4.65;;
29196;SDS011;62796;42.654;23.316;2023-05-07T09:54:04;7.82;;;4.78;;
29196;SDS011;62796;42.654;23.316;2023-05-07T09:56:31;6.55;;;5.20;;
29196;SDS011;62796;42.654;23.316;2023-05-07T09:58:57;8.88;;;4.72;;
29196;SDS011;62796;42.654;23.316;2023-05-07T10:01:25;9.32;;;5.15;;
29196;SDS011;62796;42.654;23.316;2023-05-07T10:03:52;6.22;;;4.70;;
29196;SDS011;62796;42.654;23.316;2023-05-07T10:06:21;7.85;;;4.47;;
29196;SDS011;62796;42.654;23.316;2023-05-07T10:08:47;5.15;;;4.60;;
29196;SDS011;62796;42.654;23.316;2023-05-07T10:11:13;7.43;;;4.20;;
29196;SDS011;62796;42.654;23.316;2023-05-07T10:13:40;7.63;;;6.03;;
29196;SDS011;62796;42.654;23.316;2023-05-07T10:16:07;8.90;;;5.28;;
29196;SDS011;62796;42.654;23.316;2023-05-07T10:18:33;6.03;;;5.05;;
29196;SDS011;62796;42.654;23.316;2023-05-07T10:21:08;6.82;;;4.55;;
29196;SDS011;62796;42.654;23.316;2023-05-07T10:23:48;7.60;;;4.70;;
29196;SDS011;62796;42.654;23.316;2023-05-07T10:26:17;9.50;;;4.73;;
29196;SDS011;62796;42.654;23.316;2023-05-07T10:28:46;7.68;;;5.00;;
29196;SDS011;62796;42.654;23.316;2023-05-07T10:33:48;7.97;;;4.88;;
29196;SDS011;62796;42.654;23.316;2023-05-07T10:36:16;7.80;;;5.25;;
29196;SDS011;62796;42.654;23.316;2023-05-07T10:38:43;10.23;;;5.40;;
29196;SDS011;62796;42.654;23.316;2023-05-07T10:41:09;6.53;;;4.80;;
29196;SDS011;62796;42.654;23.316;2023-05-07T10:43:41;6.07;;;4.80;;
29196;SDS011;62796;42.654;23.316;2023-05-07T10:46:18;6.28;;;4.57;;
29196;SDS011;62796;42.654;23.316;2023-05-07T10:51:25;8.57;;;5.30;;
29196;SDS011;62796;42.654;23.316;2023-05-07T10:56:35;8.98;;;5.18;;
29196;SDS011;62796;42.654;23.316;2023-05-07T11:01:58;5.78;;;4.85;;
29196;SDS011;62796;42.654;23.316;2023-05-07T11:04:27;6.47;;;4.63;;
29196;SDS011;62796;42.654;23.316;2023-05-07T11:17:30;6.18;;;4.32;;
29196;SDS011;62796;42.654;23.316;2023-05-07T11:19:57;6.57;;;4.70;;
29196;SDS011;62796;42.654;23.316;2023-05-07T11:25:00;7.22;;;4.97;;
29196;SDS011;62796;42.654;23.316;2023-05-07T11:27:27;8.73;;;4.85;;
29196;SDS011;62796;42.654;23.316;2023-05-07T11:29:54;7.47;;;4.30;;
29196;SDS011;62796;42.654;23.316;2023-05-07T11:32:22;9.60;;;4.93;;
29196;SDS011;62796;42.654;23.316;2023-05-07T11:34:52;8.70;;;4.40;;
29196;SDS011;62796;42.654;23.316;2023-05-07T11:37:19;6.13;;;4.72;;
29196;SDS011;62796;42.654;23.316;2023-05-07T11:39:45;6.20;;;4.30;;
29196;SDS011;62796;42.654;23.316;2023-05-07T11:42:33;6.60;;;4.43;;
29196;SDS011;62796;42.654;23.316;2023-05-07T11:45:00;6.55;;;4.53;;
29196;SDS011;62796;42.654;23.316;2023-05-07T11:47:26;4.90;;;4.30;;
29196;SDS011;62796;42.654;23.316;2023-05-07T11:49:54;6.25;;;4.88;;
29196;SDS011;62796;42.654;23.316;2023-05-07T11:52:21;6.30;;;4.50;;
29196;SDS011;62796;42.654;23.316;2023-05-07T11:57:20;6.93;;;4.97;;
29196;SDS011;62796;42.654;23.316;2023-05-07T11:59:46;8.73;;;5.03;;
29196;SDS011;62796;42.654;23.316;2023-05-07T12:02:17;4.72;;;4.22;;
29196;SDS011;62796;42.654;23.316;2023-05-07T12:04:42;7.10;;;4.18;;
29196;SDS011;62796;42.654;23.316;2023-05-07T12:07:15;9.95;;;4.80;;
29196;SDS011;62796;42.654;23.316;2023-05-07T12:09:41;5.00;;;3.75;;
29196;SDS011;62796;42.654;23.316;2023-05-07T12:12:07;6.22;;;4.20;;
29196;SDS011;62796;42.654;23.316;2023-05-07T12:14:32;6.03;;;4.00;;
29196;SDS011;62796;42.654;23.316;2023-05-07T12:17:02;6.20;;;3.88;;
29196;SDS011;62796;42.654;23.316;2023-05-07T12:19:29;5.28;;;4.00;;
29196;SDS011;62796;42.654;23.316;2023-05-07T12:21:55;7.97;;;4.30;;
29196;SDS011;62796;42.654;23.316;2023-05-07T12:24:21;6.47;;;4.30;;
29196;SDS011;62796;42.654;23.316;2023-05-07T12:26:47;5.18;;;4.10;;
29196;SDS011;62796;42.654;23.316;2023-05-07T12:29:13;8.07;;;4.55;;
29196;SDS011;62796;42.654;23.316;2023-05-07T12:31:42;11.80;;;4.50;;
29196;SDS011;62796;42.654;23.316;2023-05-07T12:34:08;5.28;;;3.85;;
29196;SDS011;62796;42.654;23.316;2023-05-07T12:36:39;5.15;;;4.28;;
29196;SDS011;62796;42.654;23.316;2023-05-07T12:39:08;6.18;;;3.88;;
29196;SDS011;62796;42.654;23.316;2023-05-07T12:44:29;5.22;;;3.70;;
29196;SDS011;62796;42.654;23.316;2023-05-07T12:46:56;4.13;;;3.13;;
29196;SDS011;62796;42.654;23.316;2023-05-07T12:49:22;7.63;;;3.65;;
29196;SDS011;62796;42.654;23.316;2023-05-07T12:51:49;3.67;;;3.05;;
29196;SDS011;62796;42.654;23.316;2023-05-07T12:54:33;5.20;;;3.50;;
29196;SDS011;62796;42.654;23.316;2023-05-07T12:57:05;7.35;;;3.30;;
29196;SDS011;62796;42.654;23.316;2023-05-07T12:59:36;4.72;;;3.85;;
29196;SDS011;62796;42.654;23.316;2023-05-07T13:02:02;5.35;;;3.80;;
29196;SDS011;62796;42.654;23.316;2023-05-07T13:04:28;5.55;;;3.35;;
29196;SDS011;62796;42.654;23.316;2023-05-07T13:06:53;3.95;;;3.45;;
29196;SDS011;62796;42.654;23.316;2023-05-07T13:09:19;4.20;;;3.80;;
29196;SDS011;62796;42.654;23.316;2023-05-07T13:11:44;5.45;;;3.88;;
29196;SDS011;62796;42.654;23.316;2023-05-07T13:14:10;8.13;;;3.70;;
29196;SDS011;62796;42.654;23.316;2023-05-07T13:16:35;6.88;;;3.67;;
29196;SDS011;62796;42.654;23.316;2023-05-07T13:19:01;7.07;;;3.95;;
29196;SDS011;62796;42.654;23.316;2023-05-07T13:21:26;5.65;;;3.80;;
29196;SDS011;62796;42.654;23.316;2023-05-07T13:23:52;5.03;;;4.05;;
29196;SDS011;62796;42.654;23.316;2023-05-07T13:26:17;5.15;;;4.05;;
29196;SDS011;62796;42.654;23.316;2023-05-07T13:28:43;8.35;;;3.92;;
29196;SDS011;62796;42.654;23.316;2023-05-07T13:31:08;7.35;;;3.53;;
29196;SDS011;62796;42.654;23.316;2023-05-07T13:33:34;5.57;;;3.58;;
29196;SDS011;62796;42.654;23.316;2023-05-07T13:36:00;4.07;;;3.50;;
29196;SDS011;62796;42.654;23.316;2023-05-07T13:38:29;4.68;;;3.22;;
29196;SDS011;62796;42.654;23.316;2023-05-07T13:40:54;5.95;;;3.53;;
29196;SDS011;62796;42.654;23.316;2023-05-07T13:43:20;5.95;;;4.05;;
29196;SDS011;62796;42.654;23.316;2023-05-07T13:45:45;5.53;;;3.47;;
29196;SDS011;62796;42.654;23.316;2023-05-07T13:48:11;4.35;;;3.33;;
29196;SDS011;62796;42.654;23.316;2023-05-07T13:50:36;3.40;;;3.10;;
29196;SDS011;62796;42.654;23.316;2023-05-07T13:53:01;5.10;;;3.58;;
29196;SDS011;62796;42.654;23.316;2023-05-07T13:55:29;4.95;;;3.50;;
29196;SDS011;62796;42.654;23.316;2023-05-07T13:57:59;4.35;;;2.97;;
29196;SDS011;62796;42.654;23.316;2023-05-07T14:00:26;3.90;;;3.17;;
29196;SDS011;62796;42.654;23.316;2023-05-07T14:02:53;7.38;;;3.78;;
29196;SDS011;62796;42.654;23.316;2023-05-07T14:05:19;7.85;;;3.58;;
29196;SDS011;62796;42.654;23.316;2023-05-07T14:07:45;3.90;;;3.47;;
29196;SDS011;62796;42.654;23.316;2023-05-07T14:10:11;6.45;;;4.00;;
29196;SDS011;62796;42.654;23.316;2023-05-07T14:12:38;8.55;;;3.97;;
29196;SDS011;62796;42.654;23.316;2023-05-07T14:15:03;4.88;;;3.75;;
29196;SDS011;62796;42.654;23.316;2023-05-07T14:17:29;6.18;;;3.58;;
29196;SDS011;62796;42.654;23.316;2023-05-07T14:19:55;3.97;;;3.40;;
29196;SDS011;62796;42.654;23.316;2023-05-07T14:22:23;6.10;;;3.45;;
29196;SDS011;62796;42.654;23.316;2023-05-07T14:24:49;5.60;;;3.50;;
29196;SDS011;62796;42.654;23.316;2023-05-07T14:27:15;6.43;;;3.80;;
29196;SDS011;62796;42.654;23.316;2023-05-07T14:29:41;5.82;;;3.90;;
29196;SDS011;62796;42.654;23.316;2023-05-07T14:32:07;18.33;;;5.30;;
29196;SDS011;62796;42.654;23.316;2023-05-07T14:34:33;6.97;;;4.10;;
29196;SDS011;62796;42.654;23.316;2023-05-07T14:36:59;4.20;;;3.72;;
29196;SDS011;62796;42.654;23.316;2023-05-07T14:39:24;5.18;;;4.03;;
29196;SDS011;62796;42.654;23.316;2023-05-07T14:41:50;5.47;;;3.58;;
29196;SDS011;62796;42.654;23.316;2023-05-07T14:44:16;5.25;;;3.50;;
29196;SDS011;62796;42.654;23.316;2023-05-07T14:46:42;4.93;;;3.88;;
29196;SDS011;62796;42.654;23.316;2023-05-07T14:49:07;5.05;;;3.97;;
29196;SDS011;62796;42.654;23.316;2023-05-07T14:51:41;6.53;;;4.10;;